createdAt,value
2018-08-22T00:00:27.961Z,0
2018-08-22T00:01:28.225Z,0
2018-08-22T00:02:28.198Z,0
2018-08-22T00:03:28.191Z,0
2018-08-22T00:04:28.205Z,0
2018-08-22T00:05:28.181Z,0
2018-08-22T00:06:28.176Z,0
2018-08-22T00:07:27.916Z,0
2018-08-22T00:08:28.176Z,0
2018-08-22T00:09:27.904Z,0
2018-08-22T00:10:27.899Z,0
2018-08-22T00:11:27.891Z,0
2018-08-22T00:12:27.639Z,0
2018-08-22T00:13:27.382Z,0
2018-08-22T00:14:27.621Z,0
2018-08-22T00:15:28.343Z,0
2018-08-22T00:16:27.863Z,0
2018-08-22T00:17:28.121Z,0
2018-08-22T00:18:28.099Z,0
2018-08-22T00:19:27.604Z,0
2018-08-22T00:20:28.092Z,0
2018-08-22T00:21:28.083Z,0
2018-08-22T00:22:27.917Z,0
2018-08-22T00:23:28.069Z,0
2018-08-22T00:24:27.575Z,0
2018-08-22T00:25:28.458Z,0
2018-08-22T00:26:27.798Z,0
2018-08-22T00:27:28.101Z,0
2018-08-22T00:28:28.044Z,0
2018-08-22T00:29:28.196Z,0
2018-08-22T00:30:27.776Z,0
2018-08-22T00:31:28.028Z,0
2018-08-22T00:32:27.770Z,0
2018-08-22T00:33:27.759Z,0
2018-08-22T00:34:27.749Z,0
2018-08-22T00:35:27.995Z,0
2018-08-22T00:36:27.738Z,0
2018-08-22T00:37:27.481Z,0
2018-08-22T00:38:27.473Z,0
2018-08-22T00:39:27.969Z,0
2018-08-22T00:40:27.965Z,0
2018-08-22T00:41:27.961Z,0
2018-08-22T00:42:27.964Z,0
2018-08-22T00:43:27.689Z,0
2018-08-22T00:44:27.683Z,0
2018-08-22T00:45:27.685Z,0
2018-08-22T00:46:27.923Z,0
2018-08-22T00:47:27.913Z,0
2018-08-22T00:48:27.911Z,0
2018-08-22T00:49:27.904Z,0
2018-08-22T00:50:27.649Z,0
2018-08-22T00:51:27.638Z,0
2018-08-22T00:52:27.638Z,0
2018-08-22T00:53:27.887Z,0
2018-08-22T00:54:27.371Z,0
2018-08-22T00:55:27.363Z,0
2018-08-22T00:56:27.357Z,0
2018-08-22T00:57:27.857Z,0
2018-08-22T00:58:27.604Z,0
2018-08-22T00:59:27.851Z,0
2018-08-22T01:00:27.844Z,0
2018-08-22T01:01:27.578Z,0
2018-08-22T01:02:27.572Z,0
2018-08-22T01:03:27.813Z,0
2018-08-22T01:04:27.306Z,0
2018-08-22T01:05:27.801Z,0
2018-08-22T01:06:27.797Z,0
2018-08-22T01:07:27.787Z,0
2018-08-22T01:08:27.542Z,0
2018-08-22T01:09:27.522Z,0
2018-08-22T01:10:27.520Z,0
2018-08-22T01:11:27.510Z,0
2018-08-22T01:12:27.757Z,0
2018-08-22T01:13:27.752Z,0
2018-08-22T01:14:27.746Z,0
2018-08-22T01:15:27.734Z,0
2018-08-22T01:16:27.725Z,0
2018-08-22T01:17:27.728Z,0
2018-08-22T01:18:27.716Z,0
2018-08-22T01:19:27.716Z,0
2018-08-22T01:20:27.705Z,0
2018-08-22T01:21:27.708Z,0
2018-08-22T01:22:27.687Z,0
2018-08-22T01:23:27.435Z,0
2018-08-22T01:24:27.690Z,0
2018-08-22T01:25:27.421Z,0
2018-08-22T01:26:27.416Z,0
2018-08-22T01:27:27.446Z,0
2018-08-22T01:28:27.397Z,0
2018-08-22T01:29:27.391Z,0
2018-08-22T01:30:27.388Z,0
2018-08-22T01:31:27.626Z,0
2018-08-22T01:32:27.633Z,0
2018-08-22T01:33:27.617Z,0
2018-08-22T01:34:27.368Z,0
2018-08-22T01:35:27.602Z,0
2018-08-22T01:36:27.347Z,0
2018-08-22T01:37:27.590Z,0
2018-08-22T01:38:27.328Z,0
2018-08-22T01:39:27.074Z,0
2018-08-22T01:40:27.063Z,0
2018-08-22T01:41:27.561Z,0
2018-08-22T01:42:27.555Z,0
2018-08-22T01:43:27.050Z,0
2018-08-22T01:44:27.537Z,0
2018-08-22T01:45:27.581Z,0
2018-08-22T01:46:27.534Z,0
2018-08-22T01:47:27.517Z,0
2018-08-22T01:48:27.525Z,0
2018-08-22T01:49:27.256Z,0
2018-08-22T01:50:27.505Z,0
2018-08-22T01:51:27.244Z,0
2018-08-22T01:52:27.485Z,0
2018-08-22T01:53:27.480Z,0
2018-08-22T01:54:27.476Z,0
2018-08-22T01:55:27.471Z,0
2018-08-22T01:56:27.211Z,0
2018-08-22T01:57:27.205Z,0
2018-08-22T01:58:27.444Z,0
2018-08-22T01:59:27.444Z,0
2018-08-22T02:00:27.182Z,0
2018-08-22T02:01:27.437Z,0
2018-08-22T02:02:27.170Z,0
2018-08-22T02:03:27.160Z,0
2018-08-22T02:04:27.404Z,0
2018-08-22T02:05:27.398Z,0
2018-08-22T02:06:27.390Z,0
2018-08-22T02:07:27.131Z,0
2018-08-22T02:08:27.421Z,0
2018-08-22T02:09:27.116Z,0
2018-08-22T02:10:27.112Z,0
2018-08-22T02:11:27.171Z,0
2018-08-22T02:12:27.102Z,0
2018-08-22T02:13:27.341Z,0
2018-08-22T02:14:27.083Z,0
2018-08-22T02:15:27.329Z,0
2018-08-22T02:16:26.820Z,0
2018-08-22T02:17:27.062Z,0
2018-08-22T02:18:27.306Z,0
2018-08-22T02:19:26.796Z,0
2018-08-22T02:20:27.043Z,0
2018-08-22T02:21:27.285Z,0
2018-08-22T02:22:27.029Z,0
2018-08-22T02:23:27.021Z,0
2018-08-22T02:24:26.762Z,0
2018-08-22T02:25:27.409Z,0
2018-08-22T02:26:27.263Z,0
2018-08-22T02:27:27.258Z,0
2018-08-22T02:28:27.243Z,0
2018-08-22T02:29:26.990Z,0
2018-08-22T02:30:27.251Z,0
2018-08-22T02:31:27.234Z,0
2018-08-22T02:32:27.221Z,0
2018-08-22T02:33:26.957Z,0
2018-08-22T02:34:26.948Z,0
2018-08-22T02:35:26.941Z,0
2018-08-22T02:36:26.934Z,0
2018-08-22T02:37:26.683Z,0
2018-08-22T02:38:26.915Z,0
2018-08-22T02:39:26.917Z,0
2018-08-22T02:40:27.156Z,0
2018-08-22T02:41:27.153Z,0
2018-08-22T02:42:27.140Z,0
2018-08-22T02:43:27.140Z,0
2018-08-22T02:44:26.887Z,0
2018-08-22T02:45:26.873Z,0
2018-08-22T02:46:27.120Z,0
2018-08-22T02:47:27.105Z,0
2018-08-22T02:48:27.095Z,0
2018-08-22T02:49:27.086Z,0
2018-08-22T02:50:27.090Z,0
2018-08-22T02:51:27.074Z,0
2018-08-22T02:52:27.075Z,0
2018-08-22T02:53:27.073Z,0
2018-08-22T02:54:26.801Z,0
2018-08-22T02:55:26.803Z,0
2018-08-22T02:56:27.043Z,0
2018-08-22T02:57:27.036Z,0
2018-08-22T02:58:27.030Z,0
2018-08-22T02:59:26.764Z,0
2018-08-22T03:00:27.013Z,0
2018-08-22T03:01:27.009Z,0
2018-08-22T03:02:26.745Z,0
2018-08-22T03:03:26.994Z,0
2018-08-22T03:04:26.740Z,0
2018-08-22T03:05:26.974Z,0
2018-08-22T03:06:26.970Z,0
2018-08-22T03:07:26.965Z,0
2018-08-22T03:08:26.979Z,0
2018-08-22T03:09:26.451Z,0
2018-08-22T03:10:26.941Z,0
2018-08-22T03:11:26.676Z,0
2018-08-22T03:12:26.928Z,0
2018-08-22T03:13:26.417Z,0
2018-08-22T03:14:26.907Z,0
2018-08-22T03:15:26.649Z,0
2018-08-22T03:16:26.640Z,0
2018-08-22T03:17:26.637Z,0
2018-08-22T03:18:26.880Z,0
2018-08-22T03:19:26.875Z,0
2018-08-22T03:20:26.868Z,0
2018-08-22T03:21:26.867Z,0
2018-08-22T03:22:26.603Z,0
2018-08-22T03:23:26.842Z,0
2018-08-22T03:24:26.596Z,0
2018-08-22T03:25:26.869Z,0
2018-08-22T03:26:26.749Z,0
2018-08-22T03:27:26.813Z,0
2018-08-22T03:28:26.807Z,0
2018-08-22T03:29:26.552Z,0
2018-08-22T03:30:26.302Z,0
2018-08-22T03:31:26.541Z,0
2018-08-22T03:32:26.790Z,0
2018-08-22T03:33:26.522Z,0
2018-08-22T03:34:26.523Z,0
2018-08-22T03:35:26.762Z,0
2018-08-22T03:36:26.503Z,0
2018-08-22T03:37:26.742Z,0
2018-08-22T03:38:26.737Z,0
2018-08-22T03:39:26.224Z,0
2018-08-22T03:40:26.721Z,0
2018-08-22T03:41:26.718Z,0
2018-08-22T03:42:26.708Z,0
2018-08-22T03:43:26.695Z,0
2018-08-22T03:44:26.437Z,0
2018-08-22T03:45:26.685Z,0
2018-08-22T03:46:26.676Z,0
2018-08-22T03:47:26.415Z,0
2018-08-22T03:48:26.665Z,0
2018-08-22T03:49:26.403Z,5
2018-08-22T03:50:26.406Z,5
2018-08-22T03:51:26.136Z,5
2018-08-22T03:52:26.130Z,5
2018-08-22T03:53:26.629Z,5
2018-08-22T03:54:26.620Z,5
2018-08-22T03:55:26.363Z,5
2018-08-22T03:56:26.616Z,10
2018-08-22T03:57:26.348Z,10
2018-08-22T03:58:26.587Z,10
2018-08-22T03:59:26.333Z,10
2018-08-22T04:00:26.576Z,10
2018-08-22T04:01:26.572Z,10
2018-08-22T04:02:26.567Z,15
2018-08-22T04:03:26.557Z,15
2018-08-22T04:04:26.553Z,15
2018-08-22T04:05:26.540Z,15
2018-08-22T04:06:26.278Z,20
2018-08-22T04:07:26.528Z,20
2018-08-22T04:08:26.266Z,20
2018-08-22T04:09:26.511Z,25
2018-08-22T04:10:26.252Z,25
2018-08-22T04:11:26.495Z,25
2018-08-22T04:12:26.483Z,30
2018-08-22T04:13:26.479Z,30
2018-08-22T04:14:26.220Z,30
2018-08-22T04:15:26.477Z,35
2018-08-22T04:16:26.207Z,35
2018-08-22T04:17:26.451Z,35
2018-08-22T04:18:26.443Z,40
2018-08-22T04:19:26.184Z,45
2018-08-22T04:20:26.442Z,45
2018-08-22T04:21:26.168Z,50
2018-08-22T04:22:26.170Z,55
2018-08-22T04:23:26.410Z,55
2018-08-22T04:24:25.895Z,55
2018-08-22T04:25:26.392Z,60
2018-08-22T04:26:26.389Z,60
2018-08-22T04:27:26.380Z,65
2018-08-22T04:28:26.372Z,70
2018-08-22T04:29:26.117Z,75
2018-08-22T04:30:26.114Z,75
2018-08-22T04:31:26.109Z,80
2018-08-22T04:32:26.343Z,85
2018-08-22T04:33:26.338Z,90
2018-08-22T04:34:26.332Z,95
2018-08-22T04:35:26.332Z,100
2018-08-22T04:36:26.324Z,105
2018-08-22T04:37:26.593Z,110
2018-08-22T04:38:25.800Z,115
2018-08-22T04:39:26.306Z,115
2018-08-22T04:40:26.297Z,120
2018-08-22T04:41:26.042Z,125
2018-08-22T04:42:26.287Z,130
2018-08-22T04:43:26.278Z,135
2018-08-22T04:44:26.271Z,135
2018-08-22T04:45:26.275Z,140
2018-08-22T04:46:26.267Z,145
2018-08-22T04:47:26.259Z,150
2018-08-22T04:48:26.496Z,160
2018-08-22T04:49:26.246Z,160
2018-08-22T04:50:26.243Z,165
2018-08-22T04:51:26.247Z,170
2018-08-22T04:52:25.987Z,180
2018-08-22T04:53:25.981Z,185
2018-08-22T04:54:25.977Z,185
2018-08-22T04:55:25.973Z,190
2018-08-22T04:56:25.970Z,195
2018-08-22T04:57:25.966Z,200
2018-08-22T04:58:25.713Z,205
2018-08-22T04:59:25.712Z,210
2018-08-22T05:00:26.228Z,215
2018-08-22T05:01:25.962Z,220
2018-08-22T05:02:26.201Z,225
2018-08-22T05:03:25.960Z,235
2018-08-22T05:04:26.207Z,235
2018-08-22T05:05:25.442Z,245
2018-08-22T05:06:26.205Z,250
2018-08-22T05:07:25.692Z,260
2018-08-22T05:08:25.701Z,265
2018-08-22T05:09:26.205Z,270
2018-08-22T05:10:26.189Z,275
2018-08-22T05:11:25.937Z,280
2018-08-22T05:12:26.188Z,280
2018-08-22T05:13:26.186Z,290
2018-08-22T05:14:26.201Z,300
2018-08-22T05:15:26.187Z,300
2018-08-22T05:16:25.934Z,310
2018-08-22T05:17:26.194Z,315
2018-08-22T05:18:26.190Z,320
2018-08-22T05:19:26.202Z,320
2018-08-22T05:20:26.192Z,330
2018-08-22T05:21:26.199Z,345
2018-08-22T05:22:25.945Z,345
2018-08-22T05:23:25.943Z,355
2018-08-22T05:24:26.199Z,355
2018-08-22T05:25:25.949Z,365
2018-08-22T05:26:27.480Z,370
2018-08-22T05:27:26.205Z,380
2018-08-22T05:28:26.201Z,380
2018-08-22T05:29:25.952Z,385
2018-08-22T05:30:26.208Z,390
2018-08-22T05:31:26.210Z,405
2018-08-22T05:32:26.219Z,410
2018-08-22T05:33:25.966Z,425
2018-08-22T05:34:26.228Z,420
2018-08-22T05:35:26.227Z,430
2018-08-22T05:36:26.231Z,440
2018-08-22T05:37:26.235Z,445
2018-08-22T05:38:26.242Z,450
2018-08-22T05:39:25.989Z,455
2018-08-22T05:40:25.989Z,455
2018-08-22T05:41:26.251Z,455
2018-08-22T05:42:26.251Z,460
2018-08-22T05:43:26.004Z,470
2018-08-22T05:44:26.006Z,475
2018-08-22T05:45:26.262Z,490
2018-08-22T05:46:28.822Z,495
2018-08-22T05:47:26.280Z,495
2018-08-22T05:48:26.029Z,500
2018-08-22T05:49:26.339Z,500
2018-08-22T05:50:26.323Z,510
2018-08-22T05:51:26.047Z,515
2018-08-22T05:52:27.579Z,530
2018-08-22T05:53:26.315Z,555
2018-08-22T05:54:27.643Z,590
2018-08-22T05:55:29.064Z,605
2018-08-22T05:56:26.337Z,625
2018-08-22T05:57:26.386Z,630
2018-08-22T05:58:26.090Z,635
2018-08-22T05:59:26.349Z,645
2018-08-22T06:00:26.122Z,660
2018-08-22T06:01:26.363Z,670
2018-08-22T06:02:26.373Z,675
2018-08-22T06:03:26.611Z,680
2018-08-22T06:04:25.895Z,685
2018-08-22T06:05:26.395Z,695
2018-08-22T06:06:26.153Z,700
2018-08-22T06:07:25.901Z,715
2018-08-22T06:08:26.417Z,730
2018-08-22T06:09:25.919Z,740
2018-08-22T06:10:25.929Z,755
2018-08-22T06:11:26.184Z,755
2018-08-22T06:12:26.204Z,765
2018-08-22T06:13:26.508Z,770
2018-08-22T06:14:26.466Z,785
2018-08-22T06:15:25.966Z,790
2018-08-22T06:16:26.249Z,805
2018-08-22T06:17:25.984Z,825
2018-08-22T06:18:26.247Z,830
2018-08-22T06:19:26.262Z,850
2018-08-22T06:20:26.519Z,855
2018-08-22T06:21:26.271Z,855
2018-08-22T06:22:26.532Z,860
2018-08-22T06:23:26.038Z,875
2018-08-22T06:24:26.049Z,870
2018-08-22T06:25:26.626Z,875
2018-08-22T06:26:26.323Z,885
2018-08-22T06:27:26.329Z,890
2018-08-22T06:28:26.602Z,910
2018-08-22T06:29:26.604Z,920
2018-08-22T06:30:26.362Z,930
2018-08-22T06:31:26.616Z,940
2018-08-22T06:32:26.644Z,940
2018-08-22T06:33:26.648Z,945
2018-08-22T06:34:26.147Z,950
2018-08-22T06:35:26.408Z,970
2018-08-22T06:36:27.417Z,990
2018-08-22T06:37:26.698Z,1005
2018-08-22T06:38:26.435Z,1025
2018-08-22T06:39:26.452Z,1040
2018-08-22T06:40:26.462Z,1045
2018-08-22T06:41:26.976Z,1045
2018-08-22T06:42:26.476Z,1045
2018-08-22T06:43:26.743Z,1060
2018-08-22T06:44:26.530Z,1080
2018-08-22T06:45:26.767Z,1085
2018-08-22T06:46:26.519Z,1095
2018-08-22T06:47:27.200Z,1105
2018-08-22T06:48:26.543Z,1110
2018-08-22T06:49:26.301Z,1125
2018-08-22T06:50:26.883Z,1155
2018-08-22T06:51:26.832Z,1135
2018-08-22T06:52:26.838Z,1130
2018-08-22T06:53:26.596Z,1130
2018-08-22T06:54:26.358Z,1140
2018-08-22T06:55:26.627Z,1135
2018-08-22T06:56:26.889Z,1115
2018-08-22T06:57:27.016Z,1105
2018-08-22T06:58:26.919Z,1115
2018-08-22T06:59:26.924Z,1135
2018-08-22T07:00:26.431Z,1145
2018-08-22T07:01:26.944Z,1160
2018-08-22T07:02:26.964Z,1190
2018-08-22T07:03:26.964Z,1195
2018-08-22T07:04:26.473Z,1200
2018-08-22T07:05:26.740Z,1210
2018-08-22T07:06:27.003Z,1225
2018-08-22T07:07:27.014Z,1240
2018-08-22T07:08:27.052Z,1250
2018-08-22T07:09:26.784Z,1265
2018-08-22T07:10:26.795Z,1270
2018-08-22T07:11:39.797Z,1270
2018-08-22T07:12:28.294Z,1280
2018-08-22T07:13:26.833Z,1275
2018-08-22T07:14:26.596Z,1260
2018-08-22T07:15:27.111Z,1225
2018-08-22T07:16:27.121Z,1155
2018-08-22T07:17:27.135Z,1095
2018-08-22T07:18:26.914Z,1095
2018-08-22T07:19:26.915Z,1120
2018-08-22T07:20:27.168Z,1140
2018-08-22T07:21:26.679Z,1140
2018-08-22T07:22:27.202Z,1135
2018-08-22T07:23:27.217Z,1145
2018-08-22T07:24:26.977Z,1175
2018-08-22T07:25:27.230Z,1215
2018-08-22T07:26:27.240Z,1245
2018-08-22T07:27:27.005Z,1280
2018-08-22T07:28:27.072Z,1330
2018-08-22T07:29:39.511Z,1375
2018-08-22T07:30:27.295Z,1395
2018-08-22T07:31:27.303Z,1430
2018-08-22T07:32:27.621Z,1445
2018-08-22T07:33:27.330Z,1460
2018-08-22T07:34:26.841Z,1440
2018-08-22T07:35:27.356Z,1420
2018-08-22T07:36:27.364Z,1400
2018-08-22T07:37:27.378Z,1345
2018-08-22T07:38:27.396Z,1340
2018-08-22T07:39:27.418Z,1540
2018-08-22T07:40:27.161Z,1790
2018-08-22T07:41:26.925Z,1885
2018-08-22T07:42:26.938Z,1925
2018-08-22T07:43:27.202Z,1950
2018-08-22T07:44:27.273Z,1970
2018-08-22T07:45:27.227Z,1990
2018-08-22T07:46:27.247Z,2000
2018-08-22T07:47:27.262Z,2000
2018-08-22T07:48:27.520Z,2015
2018-08-22T07:49:27.536Z,2055
2018-08-22T07:50:28.263Z,2090
2018-08-22T07:52:27.330Z,2095
2018-08-22T07:53:28.017Z,2070
2018-08-22T07:54:27.606Z,2100
2018-08-22T07:55:27.121Z,2090
2018-08-22T07:56:27.641Z,2035
2018-08-22T07:57:27.710Z,2055
2018-08-22T07:58:28.687Z,2065
2018-08-22T07:59:27.689Z,2105
2018-08-22T08:00:27.443Z,2100
2018-08-22T08:01:27.713Z,2080
2018-08-22T08:02:29.771Z,2100
2018-08-22T08:03:27.739Z,2110
2018-08-22T08:04:27.508Z,1840
2018-08-22T08:05:28.154Z,1520
2018-08-22T08:06:27.786Z,1435
2018-08-22T08:07:27.343Z,1410
2018-08-22T08:08:27.330Z,1375
2018-08-22T08:09:27.838Z,1340
2018-08-22T08:10:27.858Z,1315
2018-08-22T08:11:40.099Z,1305
2018-08-22T08:12:27.629Z,1340
2018-08-22T08:13:27.683Z,1390
2018-08-22T08:14:27.415Z,1440
2018-08-22T08:15:28.039Z,1490
2018-08-22T08:16:27.430Z,1505
2018-08-22T08:17:29.884Z,1515
2018-08-22T08:18:27.824Z,1515
2018-08-22T08:19:30.615Z,1525
2018-08-22T08:20:28.023Z,1535
2018-08-22T08:22:27.769Z,1575
2018-08-22T08:23:28.029Z,1575
2018-08-22T08:24:27.791Z,1580
2018-08-22T08:25:28.053Z,1585
2018-08-22T08:26:27.575Z,1575
2018-08-22T08:27:27.841Z,1565
2018-08-22T08:28:34.587Z,1570
2018-08-22T08:29:27.605Z,1535
2018-08-22T08:30:28.251Z,1540
2018-08-22T08:31:27.883Z,1550
2018-08-22T08:32:28.151Z,1325
2018-08-22T08:33:27.905Z,670
2018-08-22T08:34:27.668Z,265
2018-08-22T08:35:28.178Z,260
2018-08-22T08:36:27.938Z,255
2018-08-22T08:37:27.697Z,255
2018-08-22T08:38:27.736Z,255
2018-08-22T08:39:28.021Z,255
2018-08-22T08:40:28.232Z,255
2018-08-22T08:41:28.055Z,250
2018-08-22T08:42:28.000Z,250
2018-08-22T08:43:28.809Z,250
2018-08-22T08:44:27.767Z,250
2018-08-22T08:45:28.028Z,250
2018-08-22T08:46:27.831Z,250
2018-08-22T08:47:28.073Z,245
2018-08-22T08:48:28.048Z,245
2018-08-22T08:49:28.153Z,245
2018-08-22T08:50:30.642Z,245
2018-08-22T08:51:28.188Z,245
2018-08-22T08:52:28.397Z,245
2018-08-22T08:53:28.089Z,245
2018-08-22T08:54:28.113Z,245
2018-08-22T08:55:28.435Z,245
2018-08-22T08:56:28.125Z,240
2018-08-22T08:57:29.101Z,240
2018-08-22T08:58:28.128Z,240
2018-08-22T08:59:28.117Z,240
2018-08-22T09:00:28.418Z,245
2018-08-22T09:01:28.377Z,240
2018-08-22T09:03:28.396Z,240
2018-08-22T09:04:28.201Z,240
2018-08-22T09:05:28.430Z,240
2018-08-22T09:06:28.580Z,240
2018-08-22T09:07:28.148Z,240
2018-08-22T09:08:28.147Z,240
2018-08-22T09:09:28.411Z,235
2018-08-22T09:10:28.414Z,235
2018-08-22T09:11:28.172Z,235
2018-08-22T09:12:28.616Z,235
2018-08-22T09:13:28.429Z,235
2018-08-22T09:14:28.426Z,235
2018-08-22T09:15:28.613Z,235
2018-08-22T09:16:28.183Z,230
2018-08-22T09:17:28.795Z,230
2018-08-22T09:18:28.185Z,230
2018-08-22T09:19:28.482Z,230
2018-08-22T09:20:28.433Z,230
2018-08-22T09:21:28.701Z,230
2018-08-22T09:22:28.193Z,230
2018-08-22T09:23:28.437Z,225
2018-08-22T09:24:28.642Z,225
2018-08-22T09:25:28.442Z,225
2018-08-22T09:26:28.451Z,225
2018-08-22T09:27:28.202Z,225
2018-08-22T09:28:27.948Z,225
2018-08-22T09:29:28.243Z,225
2018-08-22T09:30:28.213Z,225
2018-08-22T09:31:28.615Z,225
2018-08-22T09:32:28.456Z,225
2018-08-22T09:33:28.462Z,225
2018-08-22T09:34:28.258Z,225
2018-08-22T09:35:28.329Z,220
2018-08-22T09:36:28.538Z,220
2018-08-22T09:37:28.214Z,220
2018-08-22T09:38:28.469Z,220
2018-08-22T09:39:29.050Z,220
2018-08-22T09:40:28.381Z,220
2018-08-22T09:41:28.483Z,220
2018-08-22T09:42:28.230Z,220
2018-08-22T09:43:28.534Z,220
2018-08-22T09:44:28.525Z,220
2018-08-22T09:45:28.484Z,220
2018-08-22T09:46:28.512Z,215
2018-08-22T09:47:27.989Z,215
2018-08-22T09:48:28.274Z,220
2018-08-22T09:49:28.239Z,215
2018-08-22T09:50:28.492Z,215
2018-08-22T09:51:27.988Z,215
2018-08-22T09:52:28.499Z,215
2018-08-22T09:53:28.243Z,215
2018-08-22T09:54:28.509Z,215
2018-08-22T09:55:28.504Z,215
2018-08-22T09:56:28.497Z,215
2018-08-22T09:57:28.247Z,215
2018-08-22T09:58:28.411Z,215
2018-08-22T09:59:28.519Z,215
2018-08-22T10:00:28.573Z,215
2018-08-22T10:01:28.003Z,215
2018-08-22T10:02:28.517Z,215
2018-08-22T10:03:28.008Z,215
2018-08-22T10:04:28.514Z,215
2018-08-22T10:05:28.263Z,210
2018-08-22T10:06:28.684Z,210
2018-08-22T10:07:28.876Z,210
2018-08-22T10:08:28.015Z,210
2018-08-22T10:09:28.531Z,210
2018-08-22T10:10:28.598Z,210
2018-08-22T10:11:28.275Z,210
2018-08-22T10:12:28.539Z,210
2018-08-22T10:13:28.546Z,205
2018-08-22T10:14:28.282Z,205
2018-08-22T10:15:28.527Z,205
2018-08-22T10:16:28.284Z,205
2018-08-22T10:17:28.891Z,205
2018-08-22T10:18:28.548Z,205
2018-08-22T10:19:28.544Z,205
2018-08-22T10:20:28.571Z,205
2018-08-22T10:21:28.036Z,205
2018-08-22T10:22:28.294Z,205
2018-08-22T10:23:28.136Z,205
2018-08-22T10:24:28.047Z,205
2018-08-22T10:25:28.299Z,205
2018-08-22T10:26:28.629Z,200
2018-08-22T10:27:28.306Z,200
2018-08-22T10:28:28.306Z,200
2018-08-22T10:29:28.303Z,200
2018-08-22T10:30:28.305Z,200
2018-08-22T10:31:28.312Z,200
2018-08-22T10:32:28.560Z,200
2018-08-22T10:33:28.317Z,200
2018-08-22T10:34:28.313Z,200
2018-08-22T10:35:28.565Z,200
2018-08-22T10:36:28.564Z,200
2018-08-22T10:37:28.571Z,200
2018-08-22T10:38:28.388Z,195
2018-08-22T10:39:28.817Z,195
2018-08-22T10:40:28.331Z,195
2018-08-22T10:41:28.326Z,195
2018-08-22T10:42:28.578Z,195
2018-08-22T10:43:28.325Z,195
2018-08-22T10:44:28.795Z,195
2018-08-22T10:45:28.588Z,195
2018-08-22T10:46:28.593Z,195
2018-08-22T10:47:28.591Z,195
2018-08-22T10:48:28.698Z,195
2018-08-22T10:49:28.463Z,195
2018-08-22T10:50:28.373Z,195
2018-08-22T10:51:28.596Z,195
2018-08-22T10:52:28.596Z,195
2018-08-22T10:53:28.597Z,195
2018-08-22T10:54:28.354Z,190
2018-08-22T10:55:28.722Z,190
2018-08-22T10:56:28.349Z,190
2018-08-22T10:57:28.606Z,190
2018-08-22T10:58:28.605Z,190
2018-08-22T10:59:28.106Z,190
2018-08-22T11:00:28.107Z,190
2018-08-22T11:01:28.360Z,190
2018-08-22T11:02:28.112Z,190
2018-08-22T11:03:28.614Z,190
2018-08-22T11:04:28.118Z,190
2018-08-22T11:05:28.617Z,190
2018-08-22T11:06:28.624Z,185
2018-08-22T11:07:28.660Z,185
2018-08-22T11:08:28.124Z,185
2018-08-22T11:09:28.631Z,190
2018-08-22T11:10:28.627Z,190
2018-08-22T11:11:28.629Z,190
2018-08-22T11:12:28.377Z,190
2018-08-22T11:13:28.635Z,190
2018-08-22T11:14:28.380Z,185
2018-08-22T11:15:28.639Z,185
2018-08-22T11:16:28.134Z,185
2018-08-22T11:17:28.392Z,185
2018-08-22T11:18:28.647Z,185
2018-08-22T11:19:28.391Z,185
2018-08-22T11:20:28.643Z,185
2018-08-22T11:21:28.651Z,185
2018-08-22T11:22:29.088Z,185
2018-08-22T11:23:28.646Z,185
2018-08-22T11:24:28.403Z,185
2018-08-22T11:25:28.416Z,180
2018-08-22T11:26:28.149Z,180
2018-08-22T11:27:28.414Z,180
2018-08-22T11:28:28.658Z,180
2018-08-22T11:29:28.673Z,180
2018-08-22T11:30:28.660Z,180
2018-08-22T11:31:28.668Z,180
2018-08-22T11:32:28.664Z,180
2018-08-22T11:33:28.665Z,180
2018-08-22T11:34:28.915Z,180
2018-08-22T11:35:28.676Z,180
2018-08-22T11:36:28.430Z,180
2018-08-22T11:37:28.680Z,180
2018-08-22T11:38:28.687Z,180
2018-08-22T11:39:28.686Z,180
2018-08-22T11:40:28.686Z,180
2018-08-22T11:41:28.431Z,180
2018-08-22T11:42:28.437Z,180
2018-08-22T11:43:28.181Z,180
2018-08-22T11:44:28.449Z,180
2018-08-22T11:45:28.698Z,180
2018-08-22T11:46:28.693Z,180
2018-08-22T11:47:28.196Z,180
2018-08-22T11:49:28.453Z,180
2018-08-22T11:50:28.447Z,180
2018-08-22T11:51:28.703Z,180
2018-08-22T11:52:28.704Z,180
2018-08-22T11:53:28.707Z,175
2018-08-22T11:54:28.206Z,175
2018-08-22T11:55:28.472Z,175
2018-08-22T11:56:28.718Z,175
2018-08-22T11:57:28.718Z,175
2018-08-22T11:58:28.475Z,175
2018-08-22T11:59:28.736Z,175
2018-08-22T12:00:28.469Z,175
2018-08-22T12:01:28.725Z,175
2018-08-22T12:02:28.730Z,175
2018-08-22T12:03:28.528Z,175
2018-08-22T12:04:28.727Z,175
2018-08-22T12:05:28.736Z,175
2018-08-22T12:06:28.730Z,180
2018-08-22T12:07:28.732Z,175
2018-08-22T12:08:28.735Z,175
2018-08-22T12:10:01.269Z,175
2018-08-22T12:10:27.992Z,175
2018-08-22T12:11:28.498Z,175
2018-08-22T12:12:28.492Z,175
2018-08-22T12:13:28.759Z,180
2018-08-22T12:14:28.504Z,175
2018-08-22T12:15:28.495Z,175
2018-08-22T12:16:28.501Z,175
2018-08-22T12:17:28.765Z,175
2018-08-22T12:18:28.757Z,175
2018-08-22T12:19:28.517Z,175
2018-08-22T12:20:28.509Z,170
2018-08-22T12:21:28.804Z,175
2018-08-22T12:22:28.774Z,170
2018-08-22T12:23:29.403Z,170
2018-08-22T12:24:28.781Z,170
2018-08-22T12:25:28.531Z,170
2018-08-22T12:26:28.521Z,170
2018-08-22T12:27:29.332Z,170
2018-08-22T12:28:28.532Z,170
2018-08-22T12:29:28.284Z,170
2018-08-22T12:30:28.797Z,170
2018-08-22T12:31:28.789Z,170
2018-08-22T12:32:28.535Z,170
2018-08-22T12:33:28.797Z,170
2018-08-22T12:34:28.551Z,170
2018-08-22T12:35:28.540Z,170
2018-08-22T12:36:28.808Z,170
2018-08-22T12:37:28.796Z,165
2018-08-22T12:38:28.305Z,165
2018-08-22T12:39:41.550Z,165
2018-08-22T12:40:30.888Z,165
2018-08-22T12:41:28.554Z,165
2018-08-22T12:42:28.558Z,165
2018-08-22T12:43:28.572Z,165
2018-08-22T12:44:28.685Z,165
2018-08-22T12:45:28.566Z,165
2018-08-22T12:46:28.576Z,170
2018-08-22T12:47:28.574Z,170
2018-08-22T12:48:28.571Z,170
2018-08-22T12:49:28.831Z,170
2018-08-22T12:50:29.212Z,170
2018-08-22T12:51:28.828Z,170
2018-08-22T12:52:28.579Z,165
2018-08-22T12:53:28.835Z,165
2018-08-22T12:54:28.337Z,165
2018-08-22T12:55:28.344Z,170
2018-08-22T12:56:28.588Z,170
2018-08-22T12:57:28.963Z,170
2018-08-22T12:58:28.848Z,170
2018-08-22T12:59:28.092Z,170
2018-08-22T13:00:28.596Z,170
2018-08-22T13:01:28.603Z,170
2018-08-22T13:02:28.604Z,170
2018-08-22T13:03:28.358Z,165
2018-08-22T13:04:28.866Z,165
2018-08-22T13:05:28.861Z,165
2018-08-22T13:06:28.611Z,165
2018-08-22T13:07:28.610Z,165
2018-08-22T13:08:28.866Z,165
2018-08-22T13:09:28.623Z,165
2018-08-22T13:10:28.619Z,165
2018-08-22T13:11:29.104Z,165
2018-08-22T13:12:28.630Z,165
2018-08-22T13:13:28.634Z,165
2018-08-22T13:14:28.886Z,165
2018-08-22T13:15:28.893Z,165
2018-08-22T13:16:28.889Z,165
2018-08-22T13:17:28.639Z,160
2018-08-22T13:18:28.643Z,160
2018-08-22T13:19:28.640Z,160
2018-08-22T13:20:28.901Z,160
2018-08-22T13:22:00.786Z,160
2018-08-22T13:22:28.915Z,160
2018-08-22T13:23:28.648Z,160
2018-08-22T13:24:28.165Z,160
2018-08-22T13:25:28.909Z,160
2018-08-22T13:26:28.913Z,160
2018-08-22T13:27:28.665Z,160
2018-08-22T13:28:28.659Z,160
2018-08-22T13:29:28.666Z,160
2018-08-22T13:30:29.309Z,160
2018-08-22T13:31:28.925Z,160
2018-08-22T13:32:28.926Z,160
2018-08-22T13:33:28.692Z,160
2018-08-22T13:34:28.932Z,160
2018-08-22T13:35:28.936Z,160
2018-08-22T13:36:29.190Z,160
2018-08-22T13:37:28.689Z,160
2018-08-22T13:38:28.686Z,160
2018-08-22T13:39:28.689Z,160
2018-08-22T13:40:28.480Z,160
2018-08-22T13:41:28.710Z,160
2018-08-22T13:42:29.238Z,160
2018-08-22T13:43:28.956Z,160
2018-08-22T13:44:28.703Z,160
2018-08-22T13:45:28.455Z,160
2018-08-22T13:46:28.960Z,160
2018-08-22T13:47:28.712Z,160
2018-08-22T13:48:28.711Z,160
2018-08-22T13:49:28.716Z,160
2018-08-22T13:50:28.975Z,160
2018-08-22T13:51:28.727Z,160
2018-08-22T13:52:28.998Z,160
2018-08-22T13:53:28.725Z,160
2018-08-22T13:54:28.989Z,160
2018-08-22T13:55:28.484Z,160
2018-08-22T13:56:29.400Z,160
2018-08-22T13:57:28.742Z,160
2018-08-22T13:58:28.992Z,160
2018-08-22T13:59:28.748Z,160
2018-08-22T14:00:28.744Z,160
2018-08-22T14:01:29.186Z,160
2018-08-22T14:02:29.007Z,160
2018-08-22T14:03:28.756Z,160